createdAt,value
2018-11-25T00:00:50.020Z,100.0
2018-11-25T00:02:50.046Z,100.0
2018-11-25T00:04:50.398Z,100.0
2018-11-25T00:06:50.449Z,100.0
2018-11-25T00:08:50.525Z,100.0
2018-11-25T00:10:50.520Z,100.0
2018-11-25T00:12:50.580Z,100.0
2018-11-25T00:14:50.645Z,100.0
2018-11-25T00:16:49.874Z,100.0
2018-11-25T00:18:49.905Z,100.0
2018-11-25T00:20:49.912Z,100.0
2018-11-25T00:22:50.047Z,100.0
2018-11-25T00:24:49.990Z,100.0
2018-11-25T00:26:50.264Z,100.0
2018-11-25T00:28:50.249Z,100.0
2018-11-25T00:30:50.253Z,100.0
2018-11-25T00:32:50.224Z,100.0
2018-11-25T00:34:50.600Z,100.0
2018-11-25T00:36:49.907Z,100.0
2018-11-25T00:38:49.907Z,100.0
2018-11-25T00:40:49.964Z,100.0
2018-11-25T00:42:50.049Z,100.0
2018-11-25T00:44:50.101Z,100.0
2018-11-25T00:46:50.414Z,100.0
2018-11-25T00:48:50.415Z,100.0
2018-11-25T00:50:50.505Z,100.0
2018-11-25T00:52:50.544Z,100.0
2018-11-25T00:54:50.569Z,100.0
2018-11-25T00:56:49.921Z,100.0
2018-11-25T00:58:49.983Z,100.0
2018-11-25T01:00:49.933Z,100.0
2018-11-25T01:02:49.986Z,100.0
2018-11-25T01:04:50.305Z,100.0
2018-11-25T01:06:50.464Z,100.0
2018-11-25T01:08:50.565Z,100.0
2018-11-25T01:10:50.542Z,100.0
2018-11-25T01:12:50.570Z,100.0
2018-11-25T01:14:50.548Z,100.0
2018-11-25T01:16:49.923Z,100.0
2018-11-25T01:18:49.962Z,100.0
2018-11-25T01:20:50.028Z,100.0
2018-11-25T01:22:50.007Z,100.0
2018-11-25T01:24:49.971Z,100.0
2018-11-25T01:26:50.282Z,100.0
2018-11-25T01:28:50.246Z,100.0
2018-11-25T01:30:50.293Z,100.0
2018-11-25T01:32:50.346Z,100.0
2018-11-25T01:34:50.750Z,100.0
2018-11-25T01:36:50.143Z,100.0
2018-11-25T01:38:50.129Z,100.0
2018-11-25T01:40:50.080Z,100.0
2018-11-25T01:42:50.046Z,100.0
2018-11-25T01:44:50.046Z,100.0
2018-11-25T01:46:50.308Z,100.0
2018-11-25T01:48:50.386Z,100.0
2018-11-25T01:50:50.476Z,100.0
2018-11-25T01:52:50.464Z,100.0
2018-11-25T01:54:50.465Z,100.0
2018-11-25T01:56:50.704Z,100.0
2018-11-25T01:58:50.647Z,100.0
2018-11-25T02:00:50.721Z,100.0
2018-11-25T02:02:50.697Z,100.0
2018-11-25T02:04:50.078Z,100.0
2018-11-25T02:06:50.292Z,100.0
2018-11-25T02:08:50.303Z,100.0
2018-11-25T02:10:50.274Z,100.0
2018-11-25T02:12:50.477Z,100.0
2018-11-25T02:14:50.374Z,100.0
2018-11-25T02:16:50.513Z,100.0
2018-11-25T02:18:50.437Z,100.0
2018-11-25T02:20:50.491Z,100.0
2018-11-25T02:22:50.518Z,100.0
2018-11-25T02:24:50.493Z,100.0
2018-11-25T02:26:50.744Z,100.0
2018-11-25T02:28:50.691Z,100.0
2018-11-25T02:30:49.795Z,100.0
2018-11-25T02:32:49.827Z,100.0
2018-11-25T02:34:50.357Z,100.0
2018-11-25T02:36:50.615Z,100.0
2018-11-25T02:38:50.639Z,100.0
2018-11-25T02:40:50.698Z,100.0
2018-11-25T02:42:50.619Z,100.0
2018-11-25T02:44:50.614Z,100.0
2018-11-25T02:46:49.964Z,100.0
2018-11-25T02:48:50.091Z,100.0
2018-11-25T02:50:50.113Z,100.0
2018-11-25T02:52:50.216Z,100.0
2018-11-25T02:54:50.269Z,100.0
2018-11-25T02:56:50.511Z,100.0
2018-11-25T02:58:50.546Z,100.0
2018-11-25T03:00:50.591Z,100.0
2018-11-25T03:02:50.712Z,100.0
2018-11-25T03:04:50.262Z,100.0
2018-11-25T03:06:50.383Z,100.0
2018-11-25T03:08:50.548Z,100.0
2018-11-25T03:10:50.578Z,100.0
2018-11-25T03:12:50.645Z,100.0
2018-11-25T03:14:50.558Z,100.0
2018-11-25T03:16:50.760Z,100.0
2018-11-25T03:18:49.774Z,100.0
2018-11-25T03:20:50.780Z,100.0
2018-11-25T03:22:49.864Z,100.0
2018-11-25T03:24:49.807Z,100.0
2018-11-25T03:26:49.987Z,100.0
2018-11-25T03:28:50.067Z,100.0
2018-11-25T03:30:50.128Z,100.0
2018-11-25T03:32:50.305Z,100.0
2018-11-25T03:34:50.579Z,100.0
2018-11-25T03:36:50.720Z,100.0
2018-11-25T03:38:49.783Z,100.0
2018-11-25T03:40:49.881Z,100.0
2018-11-25T03:42:49.922Z,100.0
2018-11-25T03:44:50.058Z,100.0
2018-11-25T03:46:50.176Z,100.0
2018-11-25T03:48:50.252Z,100.0
2018-11-25T03:50:50.270Z,100.0
2018-11-25T03:52:50.362Z,100.0
2018-11-25T03:54:50.367Z,100.0
2018-11-25T03:56:50.504Z,100.0
2018-11-25T03:58:50.572Z,100.0
2018-11-25T04:00:50.539Z,100.0
2018-11-25T04:02:50.620Z,100.0
2018-11-25T04:04:50.148Z,100.0
2018-11-25T04:06:50.328Z,100.0
2018-11-25T04:08:50.348Z,100.0
2018-11-25T04:10:50.392Z,100.0
2018-11-25T04:12:50.430Z,100.0
2018-11-25T04:14:50.418Z,100.0
2018-11-25T04:16:50.606Z,100.0
2018-11-25T04:18:50.632Z,100.0
2018-11-25T04:20:50.739Z,100.0
2018-11-25T04:22:49.907Z,100.0
2018-11-25T04:24:49.844Z,100.0
2018-11-25T04:26:50.240Z,100.0
2018-11-25T04:28:50.297Z,100.0
2018-11-25T04:30:50.281Z,100.0
2018-11-25T04:32:50.243Z,100.0
2018-11-25T04:34:50.592Z,100.0
2018-11-25T04:36:50.747Z,100.0
2018-11-25T04:38:50.759Z,100.0
2018-11-25T04:40:50.804Z,100.0
2018-11-25T04:42:49.774Z,100.0
2018-11-25T04:44:49.878Z,100.0
2018-11-25T04:46:50.344Z,100.0
2018-11-25T04:48:50.394Z,100.0
2018-11-25T04:50:50.385Z,100.0
2018-11-25T04:52:50.510Z,100.0
2018-11-25T04:54:50.525Z,100.0
2018-11-25T04:56:50.653Z,100.0
2018-11-25T04:58:50.675Z,100.0
2018-11-25T05:00:50.605Z,100.0
2018-11-25T05:02:50.652Z,100.0
2018-11-25T05:04:50.053Z,100.0
2018-11-25T05:06:50.271Z,100.0
2018-11-25T05:08:50.252Z,100.0
2018-11-25T05:10:50.330Z,100.0
2018-11-25T05:12:50.359Z,100.0
2018-11-25T05:14:50.338Z,100.0
2018-11-25T05:16:50.613Z,100.0
2018-11-25T05:18:50.551Z,100.0
2018-11-25T05:20:50.573Z,100.0
2018-11-25T05:22:50.555Z,100.0
2018-11-25T05:24:50.523Z,100.0
2018-11-25T05:26:50.295Z,100.0
2018-11-25T05:28:50.279Z,100.0
2018-11-25T05:30:50.300Z,100.0
2018-11-25T05:32:50.350Z,100.0
2018-11-25T05:34:50.692Z,100.0
2018-11-25T05:36:49.973Z,100.0
2018-11-25T05:38:50.013Z,100.0
2018-11-25T05:40:50.037Z,100.0
2018-11-25T05:42:50.114Z,100.0
2018-11-25T05:44:50.143Z,100.0
2018-11-25T05:46:50.470Z,100.0
2018-11-25T05:48:50.504Z,100.0
2018-11-25T05:50:50.614Z,100.0
2018-11-25T05:52:50.609Z,100.0
2018-11-25T05:54:50.782Z,100.0
2018-11-25T05:56:49.967Z,100.0
2018-11-25T05:58:50.029Z,100.0
2018-11-25T06:00:50.049Z,100.0
2018-11-25T06:02:50.059Z,100.0
2018-11-25T06:04:50.429Z,100.0
2018-11-25T06:06:50.590Z,100.0
2018-11-25T06:08:50.602Z,100.0
2018-11-25T06:10:50.606Z,100.0
2018-11-25T06:12:50.696Z,100.0
2018-11-25T06:14:50.679Z,100.0
2018-11-25T06:16:49.936Z,100.0
2018-11-25T06:18:50.031Z,100.0
2018-11-25T06:20:50.036Z,100.0
2018-11-25T06:22:50.160Z,100.0
2018-11-25T06:24:50.272Z,100.0
2018-11-25T06:26:50.509Z,100.0
2018-11-25T06:28:50.521Z,100.0
2018-11-25T06:30:50.500Z,100.0
2018-11-25T06:32:50.551Z,100.0
2018-11-25T06:34:50.079Z,100.0
2018-11-25T06:36:50.079Z,100.0
2018-11-25T06:38:50.053Z,100.0
2018-11-25T06:40:50.024Z,100.0
2018-11-25T06:42:50.037Z,100.0
2018-11-25T06:44:50.008Z,100.0
2018-11-25T06:46:50.165Z,100.0
2018-11-25T06:48:55.405Z,100.0
2018-11-25T06:50:50.425Z,100.0
2018-11-25T06:52:50.421Z,100.0
2018-11-25T06:54:50.448Z,100.0
2018-11-25T06:56:50.688Z,100.0
2018-11-25T06:58:50.722Z,100.0
2018-11-25T07:00:50.787Z,100.0
2018-11-25T07:02:50.771Z,100.0
2018-11-25T07:04:50.066Z,100.0
2018-11-25T07:06:50.303Z,100.0
2018-11-25T07:08:50.312Z,100.0
2018-11-25T07:10:50.315Z,100.0
2018-11-25T07:12:50.341Z,100.0
2018-11-25T07:14:50.383Z,100.0
2018-11-25T07:16:50.687Z,100.0
2018-11-25T07:18:50.823Z,100.0
2018-11-25T07:20:49.921Z,100.0
2018-11-25T07:22:49.911Z,100.0
2018-11-25T07:24:50.199Z,100.0
2018-11-25T07:26:50.397Z,100.0
2018-11-25T07:28:50.433Z,100.0
2018-11-25T07:30:50.484Z,100.0
2018-11-25T07:32:50.529Z,100.0
2018-11-25T07:34:49.806Z,100.0
2018-11-25T07:36:50.168Z,100.0
2018-11-25T07:38:50.141Z,100.0
2018-11-25T07:40:50.171Z,100.0
2018-11-25T07:42:50.183Z,100.0
2018-11-25T07:44:50.179Z,100.0
2018-11-25T07:46:50.433Z,100.0
2018-11-25T07:48:50.482Z,100.0
2018-11-25T07:50:50.527Z,100.0
2018-11-25T07:52:50.620Z,100.0
2018-11-25T07:54:50.650Z,100.0
2018-11-25T07:56:49.913Z,100.0
2018-11-25T07:58:49.947Z,100.0
2018-11-25T08:00:49.973Z,100.0
2018-11-25T08:02:50.024Z,100.0
2018-11-25T08:04:50.285Z,100.0
2018-11-25T08:06:50.471Z,100.0
2018-11-25T08:08:50.499Z,100.0
2018-11-25T08:10:50.468Z,100.0
2018-11-25T08:12:50.562Z,100.0
2018-11-25T08:14:50.533Z,100.0
2018-11-25T08:16:50.676Z,100.0
2018-11-25T08:18:50.733Z,100.0
2018-11-25T08:20:50.675Z,100.0
2018-11-25T08:22:50.696Z,100.0
2018-11-25T08:24:50.671Z,100.0
2018-11-25T08:26:49.911Z,100.0
2018-11-25T08:28:49.902Z,100.0
2018-11-25T08:30:49.913Z,100.0
2018-11-25T08:32:50.049Z,100.0
2018-11-25T08:34:50.286Z,100.0
2018-11-25T08:36:50.441Z,100.0
2018-11-25T08:38:50.387Z,100.0
2018-11-25T08:40:50.402Z,100.0
2018-11-25T08:42:50.443Z,100.0
2018-11-25T08:44:50.387Z,100.0
2018-11-25T08:46:50.477Z,100.0
2018-11-25T08:48:50.401Z,100.0
2018-11-25T08:50:50.437Z,100.0
2018-11-25T08:52:50.481Z,100.0
2018-11-25T08:54:50.550Z,100.0
2018-11-25T08:56:49.847Z,100.0
2018-11-25T08:58:49.920Z,100.0
2018-11-25T09:00:49.998Z,100.0
2018-11-25T09:02:49.989Z,100.0
2018-11-25T09:04:50.216Z,100.0
2018-11-25T09:06:50.451Z,100.0
2018-11-25T09:08:50.553Z,100.0
2018-11-25T09:10:50.479Z,100.0
2018-11-25T09:12:56.910Z,100.0
2018-11-25T09:14:49.962Z,100.0
2018-11-25T09:16:50.283Z,100.0
2018-11-25T09:18:50.277Z,100.0
2018-11-25T09:20:50.346Z,100.0
2018-11-25T09:22:50.443Z,100.0
2018-11-25T09:24:50.515Z,100.0
2018-11-25T09:26:50.776Z,100.0
2018-11-25T09:28:49.795Z,100.0
2018-11-25T09:30:49.935Z,100.0
2018-11-25T09:32:49.933Z,100.0
2018-11-25T09:34:50.556Z,100.0
2018-11-25T09:36:50.774Z,100.0
2018-11-25T09:38:49.802Z,100.0
2018-11-25T09:40:50.782Z,100.0
2018-11-25T09:42:49.829Z,100.0
2018-11-25T09:44:49.999Z,100.0
2018-11-25T09:46:50.233Z,100.0
2018-11-25T09:48:50.278Z,100.0
2018-11-25T09:50:50.259Z,100.0
2018-11-25T09:52:50.271Z,100.0
2018-11-25T09:54:50.307Z,100.0
2018-11-25T09:56:50.510Z,100.0
2018-11-25T09:58:50.544Z,100.0
2018-11-25T10:00:50.566Z,100.0
2018-11-25T10:02:50.626Z,100.0
2018-11-25T10:04:49.975Z,100.0
2018-11-25T10:06:50.244Z,100.0
2018-11-25T10:08:50.216Z,100.0
2018-11-25T10:10:53.172Z,100.0
2018-11-25T10:12:50.196Z,100.0
2018-11-25T10:14:50.270Z,100.0
2018-11-25T10:16:50.516Z,100.0
2018-11-25T10:18:50.545Z,100.0
2018-11-25T10:20:50.612Z,100.0
2018-11-25T10:22:50.638Z,100.0
2018-11-25T10:24:50.709Z,100.0
2018-11-25T10:26:49.916Z,100.0
2018-11-25T10:28:50.104Z,100.0
2018-11-25T10:30:50.139Z,100.0
2018-11-25T10:32:50.239Z,100.0
2018-11-25T10:34:50.700Z,100.0
2018-11-25T10:36:49.954Z,100.0
2018-11-25T10:38:49.949Z,100.0
2018-11-25T10:40:50.100Z,100.0
2018-11-25T10:42:50.101Z,100.0
2018-11-25T10:44:50.065Z,100.0
2018-11-25T10:46:50.326Z,100.0
2018-11-25T10:48:50.406Z,100.0
2018-11-25T10:50:51.706Z,100.0
2018-11-25T10:52:50.815Z,100.0
2018-11-25T10:54:49.821Z,100.0
2018-11-25T10:56:50.078Z,100.0
2018-11-25T10:58:50.066Z,100.0
2018-11-25T11:00:50.113Z,100.0
2018-11-25T11:02:50.179Z,100.0
2018-11-25T11:04:50.507Z,100.0
2018-11-25T11:06:50.684Z,99.4
2018-11-25T11:08:50.717Z,99.8
2018-11-25T11:10:50.741Z,99.9
2018-11-25T11:12:50.726Z,99.7
2018-11-25T11:14:49.840Z,99.2
2018-11-25T11:16:54.411Z,100.0
2018-11-25T11:18:50.456Z,99.7
2018-11-25T11:20:50.430Z,99.7
2018-11-25T11:22:50.472Z,99.3
2018-11-25T11:24:50.560Z,98.8
2018-11-25T11:26:49.919Z,98.8
2018-11-25T11:28:50.098Z,98.9
2018-11-25T11:30:50.328Z,98.0
2018-11-25T11:32:50.559Z,100.0
2018-11-25T11:34:49.911Z,99.6
2018-11-25T11:36:50.284Z,98.6
2018-11-25T11:38:50.368Z,99.0
2018-11-25T11:40:50.389Z,100.0
2018-11-25T11:42:50.405Z,100.0
2018-11-25T11:44:50.453Z,100.0
2018-11-25T11:46:50.544Z,99.4
2018-11-25T11:48:50.522Z,98.9
2018-11-25T11:50:50.561Z,98.5
2018-11-25T11:52:50.507Z,97.5
2018-11-25T11:54:50.540Z,97.1
2018-11-25T11:56:50.757Z,97.1
2018-11-25T11:58:49.809Z,95.4
2018-11-25T12:00:49.862Z,95.5
2018-11-25T12:02:49.901Z,94.8
2018-11-25T12:04:50.446Z,94.1
2018-11-25T12:06:50.687Z,94.7
2018-11-25T12:08:50.692Z,94.9
2018-11-25T12:10:50.624Z,92.8
2018-11-25T12:12:50.574Z,93.1
2018-11-25T12:14:50.739Z,93.5
2018-11-25T12:16:49.947Z,95.0
2018-11-25T12:18:49.920Z,94.1
2018-11-25T12:20:50.082Z,95.0
2018-11-25T12:22:50.145Z,94.2
2018-11-25T12:24:50.142Z,93.5
2018-11-25T12:26:50.317Z,94.1
2018-11-25T12:28:50.283Z,93.3
2018-11-25T12:30:50.285Z,94.3
2018-11-25T12:32:50.326Z,95.6
2018-11-25T12:34:50.768Z,94.6
2018-11-25T12:36:49.934Z,95.0
2018-11-25T12:38:49.918Z,93.9
2018-11-25T12:40:49.998Z,93.3
2018-11-25T12:42:50.101Z,92.9
2018-11-25T12:44:50.005Z,92.8
2018-11-25T12:46:50.147Z,92.8
2018-11-25T12:48:50.136Z,93.3
2018-11-25T12:50:50.143Z,93.3
2018-11-25T12:52:50.140Z,92.9
2018-11-25T12:54:50.101Z,93.5
2018-11-25T12:56:52.353Z,93.1
2018-11-25T12:58:50.273Z,93.1
2018-11-25T13:00:50.264Z,93.6
2018-11-25T13:02:50.291Z,92.8
2018-11-25T13:04:50.621Z,93.2
2018-11-25T13:06:49.923Z,92.8
2018-11-25T13:08:49.899Z,94.3
2018-11-25T13:10:50.045Z,94.0
2018-11-25T13:12:50.044Z,94.4
2018-11-25T13:14:49.978Z,93.8
2018-11-25T13:16:50.183Z,93.6
2018-11-25T13:18:50.208Z,93.7
2018-11-25T13:20:50.176Z,92.8
2018-11-25T13:22:50.179Z,93.0
2018-11-25T13:24:50.157Z,92.3
2018-11-25T13:26:50.310Z,92.7
2018-11-25T13:28:50.311Z,92.9
2018-11-25T13:30:50.364Z,93.4
2018-11-25T13:32:50.317Z,91.8
2018-11-25T13:34:50.563Z,92.8
2018-11-25T13:36:50.765Z,93.3
2018-11-25T13:38:49.847Z,94.3
2018-11-25T13:40:49.932Z,94.3
2018-11-25T13:42:49.954Z,94.6
2018-11-25T13:44:49.999Z,94.6
2018-11-25T13:46:50.179Z,94.4
2018-11-25T13:48:50.168Z,94.1
2018-11-25T13:50:50.313Z,95.2
2018-11-25T13:52:50.240Z,93.6
2018-11-25T13:54:50.233Z,93.2
2018-11-25T13:56:50.442Z,95.0
2018-11-25T13:58:50.391Z,94.1
2018-11-25T14:00:50.371Z,93.3
2018-11-25T14:02:49.878Z,93.4
2018-11-25T14:04:50.423Z,93.8
2018-11-25T14:06:50.736Z,93.8
2018-11-25T14:08:50.752Z,94.9
2018-11-25T14:10:49.809Z,94.5
2018-11-25T14:12:50.007Z,95.1
2018-11-25T14:14:49.968Z,94.5
2018-11-25T14:16:50.187Z,94.8
2018-11-25T14:18:50.099Z,94.2
2018-11-25T14:20:50.062Z,94.1
2018-11-25T14:22:50.102Z,94.0
2018-11-25T14:24:50.057Z,94.3
2018-11-25T14:26:50.191Z,94.1
2018-11-25T14:28:50.191Z,95.3
2018-11-25T14:30:50.217Z,94.6
2018-11-25T14:32:50.275Z,95.9
2018-11-25T14:34:50.440Z,95.3
2018-11-25T14:36:50.703Z,95.6
2018-11-25T14:38:50.667Z,96.3
2018-11-25T14:40:50.634Z,95.8
2018-11-25T14:42:50.650Z,96.7
2018-11-25T14:44:50.566Z,96.9
2018-11-25T14:46:50.694Z,97.4
2018-11-25T14:48:50.639Z,97.6
2018-11-25T14:50:50.612Z,98.3
2018-11-25T14:52:50.759Z,98.7
2018-11-25T14:54:51.805Z,98.7
2018-11-25T14:56:50.038Z,99.4
2018-11-25T14:58:50.087Z,99.4
2018-11-25T15:00:50.050Z,100.0
2018-11-25T15:02:50.024Z,100.0
2018-11-25T15:04:50.284Z,100.0
2018-11-25T15:06:50.456Z,100.0
2018-11-25T15:08:50.467Z,100.0
2018-11-25T15:10:50.472Z,100.0
2018-11-25T15:12:50.506Z,100.0
2018-11-25T15:14:50.467Z,100.0
2018-11-25T15:16:50.626Z,100.0
2018-11-25T15:18:50.615Z,100.0
2018-11-25T15:20:50.664Z,100.0
2018-11-25T15:22:50.700Z,100.0
2018-11-25T15:24:50.726Z,100.0
2018-11-25T15:26:49.793Z,100.0
2018-11-25T15:28:50.759Z,100.0
2018-11-25T15:30:49.825Z,100.0
2018-11-25T15:32:49.825Z,100.0
2018-11-25T15:34:50.423Z,100.0
2018-11-25T15:36:50.647Z,100.0
2018-11-25T15:38:50.693Z,100.0
2018-11-25T15:40:50.790Z,100.0
2018-11-25T15:42:50.800Z,100.0
2018-11-25T15:44:49.895Z,100.0
2018-11-25T15:46:50.115Z,100.0
2018-11-25T15:48:50.172Z,100.0
2018-11-25T15:50:50.147Z,100.0
2018-11-25T15:52:50.165Z,100.0
2018-11-25T15:54:50.148Z,100.0
2018-11-25T15:56:50.449Z,100.0
2018-11-25T15:58:50.450Z,100.0
2018-11-25T16:00:50.533Z,100.0
2018-11-25T16:02:50.552Z,100.0
2018-11-25T16:04:49.868Z,100.0
2018-11-25T16:06:50.180Z,100.0
2018-11-25T16:08:50.219Z,100.0
2018-11-25T16:10:50.230Z,100.0
2018-11-25T16:12:50.345Z,100.0
2018-11-25T16:14:50.340Z,100.0
2018-11-25T16:16:50.731Z,100.0
2018-11-25T16:18:50.717Z,100.0
2018-11-25T16:20:50.701Z,100.0
2018-11-25T16:22:50.673Z,100.0
2018-11-25T16:24:50.674Z,100.0
2018-11-25T16:26:49.842Z,100.0
2018-11-25T16:28:49.882Z,100.0
2018-11-25T16:30:49.908Z,100.0
2018-11-25T16:32:50.000Z,100.0
2018-11-25T16:34:50.375Z,100.0
2018-11-25T16:36:50.599Z,100.0
2018-11-25T16:38:50.715Z,100.0
2018-11-25T16:40:50.849Z,100.0
2018-11-25T16:42:49.913Z,100.0
2018-11-25T16:44:49.947Z,100.0
2018-11-25T16:46:50.104Z,100.0
2018-11-25T16:48:50.080Z,100.0
2018-11-25T16:50:50.004Z,100.0
2018-11-25T16:52:50.004Z,100.0
2018-11-25T16:54:50.072Z,100.0
2018-11-25T16:56:50.362Z,100.0
2018-11-25T16:58:50.464Z,100.0
2018-11-25T17:00:50.456Z,100.0
2018-11-25T17:02:50.492Z,100.0
2018-11-25T17:04:49.809Z,100.0
2018-11-25T17:06:49.997Z,100.0
2018-11-25T17:08:49.975Z,100.0
2018-11-25T17:10:49.963Z,100.0
2018-11-25T17:12:50.075Z,100.0
2018-11-25T17:14:50.074Z,100.0
2018-11-25T17:16:50.253Z,100.0
2018-11-25T17:18:50.223Z,100.0
2018-11-25T17:20:50.226Z,100.0
2018-11-25T17:22:50.231Z,100.0
2018-11-25T17:24:50.325Z,100.0
2018-11-25T17:26:50.437Z,100.0
2018-11-25T17:28:50.449Z,100.0
2018-11-25T17:30:50.405Z,100.0
2018-11-25T17:32:50.333Z,100.0
2018-11-25T17:34:50.609Z,100.0
2018-11-25T17:36:49.859Z,100.0
2018-11-25T17:38:49.923Z,100.0
2018-11-25T17:40:49.909Z,100.0
2018-11-25T17:42:50.009Z,100.0
2018-11-25T17:44:49.962Z,100.0
2018-11-25T17:46:50.318Z,100.0
2018-11-25T17:48:50.221Z,100.0
2018-11-25T17:50:50.178Z,100.0
2018-11-25T17:52:50.131Z,100.0
2018-11-25T17:54:50.106Z,100.0
2018-11-25T17:56:50.319Z,100.0
2018-11-25T17:58:50.304Z,100.0
2018-11-25T18:00:50.265Z,100.0
2018-11-25T18:02:50.270Z,100.0
2018-11-25T18:04:50.486Z,100.0
2018-11-25T18:06:50.758Z,100.0
2018-11-25T18:08:49.780Z,100.0
2018-11-25T18:10:50.760Z,100.0
2018-11-25T18:12:49.806Z,100.0
2018-11-25T18:14:49.823Z,100.0
2018-11-25T18:16:50.091Z,100.0
2018-11-25T18:18:50.121Z,100.0
2018-11-25T18:20:50.056Z,100.0
2018-11-25T18:22:50.098Z,100.0
2018-11-25T18:24:50.131Z,100.0
2018-11-25T18:26:50.369Z,100.0
2018-11-25T18:28:50.372Z,100.0
2018-11-25T18:30:50.318Z,100.0
2018-11-25T18:32:50.401Z,99.8
2018-11-25T18:34:49.853Z,99.6
2018-11-25T18:36:50.001Z,100.0
2018-11-25T18:38:49.971Z,99.6
2018-11-25T18:40:49.961Z,99.6
2018-11-25T18:42:50.108Z,99.9
2018-11-25T18:44:50.134Z,99.9
2018-11-25T18:46:50.424Z,100.0
2018-11-25T18:48:50.346Z,100.0
2018-11-25T18:50:50.314Z,100.0
2018-11-25T18:52:50.323Z,100.0
2018-11-25T18:54:50.268Z,100.0
2018-11-25T18:56:50.529Z,100.0
2018-11-25T18:58:50.522Z,100.0
2018-11-25T19:00:50.547Z,100.0
2018-11-25T19:02:50.652Z,100.0
2018-11-25T19:04:49.880Z,100.0
2018-11-25T19:06:50.258Z,100.0
2018-11-25T19:08:50.216Z,100.0
2018-11-25T19:10:50.166Z,100.0
2018-11-25T19:12:50.139Z,99.7
2018-11-25T19:14:50.093Z,99.3
2018-11-25T19:16:50.285Z,99.3
2018-11-25T19:18:50.266Z,98.8
2018-11-25T19:20:50.211Z,98.5
2018-11-25T19:22:50.159Z,98.9
2018-11-25T19:24:50.166Z,98.6
2018-11-25T19:26:50.354Z,98.8
2018-11-25T19:28:50.397Z,99.1
2018-11-25T19:30:50.364Z,98.8
2018-11-25T19:32:50.461Z,98.1
2018-11-25T19:34:49.799Z,98.5
2018-11-25T19:36:49.986Z,98.4
2018-11-25T19:38:50.005Z,98.0
2018-11-25T19:40:50.074Z,97.6
2018-11-25T19:42:50.106Z,97.6
2018-11-25T19:44:50.148Z,97.0
2018-11-25T19:46:50.236Z,96.7
2018-11-25T19:48:50.222Z,96.7
2018-11-25T19:50:50.174Z,96.4
2018-11-25T19:52:50.138Z,95.5
2018-11-25T19:54:50.132Z,95.9
2018-11-25T19:56:50.396Z,95.9
2018-11-25T19:58:50.366Z,96.5
2018-11-25T20:00:50.315Z,96.3
2018-11-25T20:02:50.256Z,96.8
2018-11-25T20:04:50.768Z,97.4
2018-11-25T20:06:49.990Z,97.1
2018-11-25T20:08:50.000Z,97.2
2018-11-25T20:10:50.039Z,97.2
2018-11-25T20:12:50.023Z,97.7
2018-11-25T20:14:50.762Z,97.6
2018-11-25T20:16:50.057Z,97.5
2018-11-25T20:18:50.030Z,97.0
2018-11-25T20:20:49.973Z,97.2
2018-11-25T20:22:49.963Z,97.0
2018-11-25T20:24:50.000Z,96.8
2018-11-25T20:26:50.167Z,96.2
2018-11-25T20:28:50.120Z,96.2
2018-11-25T20:30:50.115Z,95.8
2018-11-25T20:32:50.115Z,95.8
2018-11-25T20:34:50.428Z,95.4
2018-11-25T20:36:50.525Z,95.6
2018-11-25T20:38:50.502Z,96.2
2018-11-25T20:40:50.560Z,95.5
2018-11-25T20:42:50.477Z,95.9
2018-11-25T20:44:50.514Z,95.4
2018-11-25T20:46:50.678Z,95.8
2018-11-25T20:48:50.677Z,95.9
2018-11-25T20:50:50.766Z,95.8
2018-11-25T20:52:50.761Z,95.4
2018-11-25T20:54:49.808Z,95.1
2018-11-25T20:56:50.038Z,95.5
2018-11-25T20:58:50.045Z,96.0
2018-11-25T21:00:49.992Z,95.0
2018-11-25T21:02:49.938Z,95.6
2018-11-25T21:04:50.504Z,95.2
2018-11-25T21:06:49.865Z,95.2
2018-11-25T21:08:49.879Z,94.7
2018-11-25T21:10:49.928Z,94.7
2018-11-25T21:12:50.059Z,94.9
2018-11-25T21:14:50.181Z,94.9
2018-11-25T21:16:50.266Z,95.3
2018-11-25T21:18:50.295Z,95.2
2018-11-25T21:20:51.820Z,94.9
2018-11-25T21:22:50.024Z,95.0
2018-11-25T21:24:49.985Z,94.7
2018-11-25T21:26:50.122Z,94.7
2018-11-25T21:28:50.172Z,95.4
2018-11-25T21:30:50.213Z,94.8
2018-11-25T21:32:50.278Z,95.2
2018-11-25T21:34:50.529Z,95.1
2018-11-25T21:36:49.811Z,94.7
2018-11-25T21:38:49.897Z,94.5
2018-11-25T21:40:49.962Z,94.5
2018-11-25T21:42:50.064Z,94.9
2018-11-25T21:44:50.025Z,94.9
2018-11-25T21:46:50.322Z,94.6
2018-11-25T21:48:50.348Z,94.9
2018-11-25T21:50:50.400Z,94.8
2018-11-25T21:52:50.460Z,94.4
2018-11-25T21:54:50.465Z,94.1
2018-11-25T21:56:50.761Z,94.5
2018-11-25T21:58:49.786Z,95.0
2018-11-25T22:00:49.889Z,95.6
2018-11-25T22:02:49.844Z,95.7
2018-11-25T22:04:50.350Z,95.2
2018-11-25T22:06:50.580Z,95.8
2018-11-25T22:08:50.585Z,95.3
2018-11-25T22:10:50.559Z,95.5
2018-11-25T22:12:50.654Z,95.8
2018-11-25T22:14:50.721Z,95.8
2018-11-25T22:16:49.967Z,95.3
2018-11-25T22:18:49.975Z,95.6
2018-11-25T22:20:50.084Z,95.6
2018-11-25T22:22:50.151Z,95.5
2018-11-25T22:24:50.154Z,95.5
2018-11-25T22:26:50.386Z,95.0
2018-11-25T22:28:50.330Z,95.6
2018-11-25T22:30:50.334Z,94.6
2018-11-25T22:32:50.290Z,94.7
2018-11-25T22:34:50.575Z,94.6
2018-11-25T22:36:49.905Z,94.0
2018-11-25T22:38:49.924Z,92.6
2018-11-25T22:40:49.935Z,92.8
2018-11-25T22:42:49.973Z,92.9
2018-11-25T22:44:50.032Z,92.0
2018-11-25T22:46:50.245Z,92.0
2018-11-25T22:48:50.257Z,92.2
2018-11-25T22:50:50.279Z,92.5
2018-11-25T22:52:50.285Z,92.6
2018-11-25T22:54:50.239Z,92.6
2018-11-25T22:56:50.391Z,92.4
2018-11-25T22:58:50.529Z,92.3
2018-11-25T23:00:50.553Z,92.6
2018-11-25T23:02:50.494Z,92.2
2018-11-25T23:04:49.859Z,93.3
2018-11-25T23:06:50.085Z,93.7
2018-11-25T23:08:50.003Z,93.3
2018-11-25T23:10:50.013Z,94.1
2018-11-25T23:12:50.080Z,94.5
2018-11-25T23:14:50.031Z,94.8
2018-11-25T23:16:50.218Z,94.8
2018-11-25T23:18:50.215Z,95.5
2018-11-25T23:20:50.260Z,95.6
2018-11-25T23:22:50.345Z,95.9
2018-11-25T23:24:50.348Z,95.9
2018-11-25T23:26:50.473Z,96.3
2018-11-25T23:28:50.440Z,96.4
2018-11-25T23:30:50.418Z,97.2
2018-11-25T23:32:50.363Z,97.4
2018-11-25T23:34:49.855Z,98.1
2018-11-25T23:36:50.053Z,98.7
2018-11-25T23:38:50.077Z,98.8
2018-11-25T23:40:50.017Z,99.6
2018-11-25T23:42:50.057Z,99.9
2018-11-25T23:44:50.045Z,100.0
2018-11-25T23:46:50.237Z,100.0
2018-11-25T23:48:50.275Z,100.0
2018-11-25T23:50:50.245Z,100.0
2018-11-25T23:52:50.266Z,100.0
2018-11-25T23:54:50.282Z,100.0
2018-11-25T23:56:50.413Z,100.0
2018-11-25T23:58:50.478Z,100.0
